sensor_id;sensor_type;location;lat;lon;timestamp;P1;durP1;ratioP1;P2;durP2;ratioP2
17927;SDS011;9089;58.396;15.544;2022-08-04T00:02:14;4.72;;;2.60;;
17927;SDS011;9089;58.396;15.544;2022-08-04T00:04:44;3.53;;;2.20;;
17927;SDS011;9089;58.396;15.544;2022-08-04T00:07:15;6.32;;;3.28;;
17927;SDS011;9089;58.396;15.544;2022-08-04T00:09:42;3.90;;;2.90;;
17927;SDS011;9089;58.396;15.544;2022-08-04T00:12:09;4.80;;;2.65;;
17927;SDS011;9089;58.396;15.544;2022-08-04T00:14:35;6.03;;;2.75;;
17927;SDS011;9089;58.396;15.544;2022-08-04T00:17:03;4.88;;;2.75;;
17927;SDS011;9089;58.396;15.544;2022-08-04T00:19:29;4.05;;;2.67;;
17927;SDS011;9089;58.396;15.544;2022-08-04T00:21:58;3.50;;;2.80;;
17927;SDS011;9089;58.396;15.544;2022-08-04T00:24:24;5.60;;;2.95;;
17927;SDS011;9089;58.396;15.544;2022-08-04T00:26:51;7.88;;;3.22;;
17927;SDS011;9089;58.396;15.544;2022-08-04T00:29:17;7.05;;;3.80;;
17927;SDS011;9089;58.396;15.544;2022-08-04T00:31:42;5.85;;;2.85;;
17927;SDS011;9089;58.396;15.544;2022-08-04T00:34:09;8.95;;;3.22;;
17927;SDS011;9089;58.396;15.544;2022-08-04T00:36:36;6.50;;;3.13;;
17927;SDS011;9089;58.396;15.544;2022-08-04T00:39:03;3.40;;;2.47;;
17927;SDS011;9089;58.396;15.544;2022-08-04T00:41:30;6.05;;;2.80;;
17927;SDS011;9089;58.396;15.544;2022-08-04T00:44:08;9.38;;;3.33;;
17927;SDS011;9089;58.396;15.544;2022-08-04T00:46:38;9.38;;;2.83;;
17927;SDS011;9089;58.396;15.544;2022-08-04T00:49:17;8.82;;;2.90;;
17927;SDS011;9089;58.396;15.544;2022-08-04T00:51:47;6.10;;;3.30;;
17927;SDS011;9089;58.396;15.544;2022-08-04T00:54:19;5.28;;;3.10;;
17927;SDS011;9089;58.396;15.544;2022-08-04T00:57:02;7.72;;;2.58;;
17927;SDS011;9089;58.396;15.544;2022-08-04T00:59:35;6.30;;;3.50;;
17927;SDS011;9089;58.396;15.544;2022-08-04T01:02:06;7.38;;;3.25;;
17927;SDS011;9089;58.396;15.544;2022-08-04T01:04:40;4.82;;;2.95;;
17927;SDS011;9089;58.396;15.544;2022-08-04T01:07:15;5.32;;;2.58;;
17927;SDS011;9089;58.396;15.544;2022-08-04T01:09:50;6.22;;;2.83;;
17927;SDS011;9089;58.396;15.544;2022-08-04T01:12:26;3.03;;;2.75;;
17927;SDS011;9089;58.396;15.544;2022-08-04T01:14:59;5.47;;;2.90;;
17927;SDS011;9089;58.396;15.544;2022-08-04T01:17:27;10.32;;;3.10;;
17927;SDS011;9089;58.396;15.544;2022-08-04T01:20:02;3.88;;;2.75;;
17927;SDS011;9089;58.396;15.544;2022-08-04T01:22:39;8.18;;;3.05;;
17927;SDS011;9089;58.396;15.544;2022-08-04T01:25:14;8.80;;;3.53;;
17927;SDS011;9089;58.396;15.544;2022-08-04T01:27:53;6.75;;;2.95;;
17927;SDS011;9089;58.396;15.544;2022-08-04T01:30:25;3.67;;;2.70;;
17927;SDS011;9089;58.396;15.544;2022-08-04T01:32:51;4.43;;;2.92;;
17927;SDS011;9089;58.396;15.544;2022-08-04T01:35:19;5.35;;;3.00;;
17927;SDS011;9089;58.396;15.544;2022-08-04T01:37:47;4.32;;;2.80;;
17927;SDS011;9089;58.396;15.544;2022-08-04T01:40:14;4.20;;;3.38;;
17927;SDS011;9089;58.396;15.544;2022-08-04T01:42:40;5.78;;;3.63;;
17927;SDS011;9089;58.396;15.544;2022-08-04T01:45:07;8.70;;;3.60;;
17927;SDS011;9089;58.396;15.544;2022-08-04T01:47:36;4.20;;;3.08;;
17927;SDS011;9089;58.396;15.544;2022-08-04T01:50:04;7.82;;;3.45;;
17927;SDS011;9089;58.396;15.544;2022-08-04T01:52:30;7.68;;;3.50;;
17927;SDS011;9089;58.396;15.544;2022-08-04T01:54:56;9.85;;;3.13;;
17927;SDS011;9089;58.396;15.544;2022-08-04T01:57:21;5.00;;;2.97;;
17927;SDS011;9089;58.396;15.544;2022-08-04T01:59:47;5.07;;;2.83;;
17927;SDS011;9089;58.396;15.544;2022-08-04T02:02:15;7.00;;;3.45;;
17927;SDS011;9089;58.396;15.544;2022-08-04T02:04:42;5.22;;;3.03;;
17927;SDS011;9089;58.396;15.544;2022-08-04T02:09:51;5.80;;;2.97;;
17927;SDS011;9089;58.396;15.544;2022-08-04T02:12:19;6.07;;;3.20;;
17927;SDS011;9089;58.396;15.544;2022-08-04T02:14:49;8.77;;;3.35;;
17927;SDS011;9089;58.396;15.544;2022-08-04T02:17:17;6.07;;;2.78;;
17927;SDS011;9089;58.396;15.544;2022-08-04T02:19:56;5.75;;;3.20;;
17927;SDS011;9089;58.396;15.544;2022-08-04T02:22:23;6.18;;;3.22;;
17927;SDS011;9089;58.396;15.544;2022-08-04T02:24:49;4.25;;;3.10;;
17927;SDS011;9089;58.396;15.544;2022-08-04T02:27:18;5.50;;;2.92;;
17927;SDS011;9089;58.396;15.544;2022-08-04T02:29:45;4.68;;;2.80;;
17927;SDS011;9089;58.396;15.544;2022-08-04T02:32:18;6.50;;;3.20;;
17927;SDS011;9089;58.396;15.544;2022-08-04T02:34:47;6.75;;;2.97;;
17927;SDS011;9089;58.396;15.544;2022-08-04T02:37:14;5.20;;;3.10;;
17927;SDS011;9089;58.396;15.544;2022-08-04T02:39:41;5.30;;;2.72;;
17927;SDS011;9089;58.396;15.544;2022-08-04T02:42:07;4.78;;;3.38;;
17927;SDS011;9089;58.396;15.544;2022-08-04T02:44:35;5.35;;;2.83;;
17927;SDS011;9089;58.396;15.544;2022-08-04T02:47:01;5.90;;;3.30;;
17927;SDS011;9089;58.396;15.544;2022-08-04T02:49:26;4.18;;;2.60;;
17927;SDS011;9089;58.396;15.544;2022-08-04T02:51:53;4.93;;;2.95;;
17927;SDS011;9089;58.396;15.544;2022-08-04T02:54:22;6.15;;;3.30;;
17927;SDS011;9089;58.396;15.544;2022-08-04T02:56:50;3.97;;;2.97;;
17927;SDS011;9089;58.396;15.544;2022-08-04T02:59:16;5.03;;;3.20;;
17927;SDS011;9089;58.396;15.544;2022-08-04T03:01:42;6.80;;;2.85;;
17927;SDS011;9089;58.396;15.544;2022-08-04T03:12:51;2.97;;;2.65;;
17927;SDS011;9089;58.396;15.544;2022-08-04T03:15:28;6.78;;;3.22;;
17927;SDS011;9089;58.396;15.544;2022-08-04T03:26:26;7.90;;;3.13;;
17927;SDS011;9089;58.396;15.544;2022-08-04T03:29:05;6.28;;;3.10;;
17927;SDS011;9089;58.396;15.544;2022-08-04T03:31:46;6.82;;;3.22;;
17927;SDS011;9089;58.396;15.544;2022-08-04T03:34:23;5.20;;;3.25;;
17927;SDS011;9089;58.396;15.544;2022-08-04T03:42:33;6.20;;;3.63;;
17927;SDS011;9089;58.396;15.544;2022-08-04T03:45:14;6.90;;;3.40;;
17927;SDS011;9089;58.396;15.544;2022-08-04T03:47:50;3.95;;;3.42;;
17927;SDS011;9089;58.396;15.544;2022-08-04T03:53:35;7.20;;;3.30;;
17927;SDS011;9089;58.396;15.544;2022-08-04T03:56:14;3.97;;;3.35;;
17927;SDS011;9089;58.396;15.544;2022-08-04T03:59:01;6.65;;;3.85;;
17927;SDS011;9089;58.396;15.544;2022-08-04T04:01:37;4.75;;;3.28;;
17927;SDS011;9089;58.396;15.544;2022-08-04T04:04:13;5.93;;;3.75;;
17927;SDS011;9089;58.396;15.544;2022-08-04T04:09:36;6.50;;;3.45;;
17927;SDS011;9089;58.396;15.544;2022-08-04T04:12:11;7.90;;;3.55;;
17927;SDS011;9089;58.396;15.544;2022-08-04T04:14:52;7.30;;;3.63;;
17927;SDS011;9089;58.396;15.544;2022-08-04T04:17:39;9.13;;;3.45;;
17927;SDS011;9089;58.396;15.544;2022-08-04T04:20:24;5.13;;;3.35;;
17927;SDS011;9089;58.396;15.544;2022-08-04T04:22:54;5.93;;;3.47;;
17927;SDS011;9089;58.396;15.544;2022-08-04T04:25:27;5.07;;;3.60;;
17927;SDS011;9089;58.396;15.544;2022-08-04T04:28:00;6.18;;;3.70;;
17927;SDS011;9089;58.396;15.544;2022-08-04T04:30:30;6.35;;;3.35;;
17927;SDS011;9089;58.396;15.544;2022-08-04T04:33:00;5.28;;;3.50;;
17927;SDS011;9089;58.396;15.544;2022-08-04T04:35:37;6.78;;;3.75;;
17927;SDS011;9089;58.396;15.544;2022-08-04T04:38:14;4.97;;;3.15;;
17927;SDS011;9089;58.396;15.544;2022-08-04T04:40:43;7.40;;;3.33;;
17927;SDS011;9089;58.396;15.544;2022-08-04T04:43:17;4.88;;;3.08;;
17927;SDS011;9089;58.396;15.544;2022-08-04T04:45:46;6.57;;;2.90;;
17927;SDS011;9089;58.396;15.544;2022-08-04T04:48:16;3.85;;;2.80;;
17927;SDS011;9089;58.396;15.544;2022-08-04T04:50:50;5.65;;;3.10;;
17927;SDS011;9089;58.396;15.544;2022-08-04T04:53:19;4.78;;;2.95;;
17927;SDS011;9089;58.396;15.544;2022-08-04T04:55:46;8.23;;;3.22;;
17927;SDS011;9089;58.396;15.544;2022-08-04T04:58:16;4.80;;;3.13;;
17927;SDS011;9089;58.396;15.544;2022-08-04T05:00:46;6.57;;;3.08;;
17927;SDS011;9089;58.396;15.544;2022-08-04T05:03:20;4.43;;;3.08;;
17927;SDS011;9089;58.396;15.544;2022-08-04T05:14:01;3.85;;;2.92;;
17927;SDS011;9089;58.396;15.544;2022-08-04T05:16:31;5.75;;;2.80;;
17927;SDS011;9089;58.396;15.544;2022-08-04T05:19:01;4.60;;;2.97;;
17927;SDS011;9089;58.396;15.544;2022-08-04T05:21:32;6.05;;;3.03;;
17927;SDS011;9089;58.396;15.544;2022-08-04T05:24:01;4.35;;;3.00;;
17927;SDS011;9089;58.396;15.544;2022-08-04T05:26:29;3.63;;;2.85;;
17927;SDS011;9089;58.396;15.544;2022-08-04T05:28:56;3.47;;;2.72;;
17927;SDS011;9089;58.396;15.544;2022-08-04T05:31:23;3.88;;;2.70;;
17927;SDS011;9089;58.396;15.544;2022-08-04T05:33:50;3.72;;;2.25;;
17927;SDS011;9089;58.396;15.544;2022-08-04T05:36:20;6.15;;;2.70;;
17927;SDS011;9089;58.396;15.544;2022-08-04T05:38:47;4.50;;;2.83;;
17927;SDS011;9089;58.396;15.544;2022-08-04T05:41:13;6.18;;;2.60;;
17927;SDS011;9089;58.396;15.544;2022-08-04T05:43:40;3.15;;;2.40;;
17927;SDS011;9089;58.396;15.544;2022-08-04T05:46:07;4.82;;;2.35;;
17927;SDS011;9089;58.396;15.544;2022-08-04T05:48:33;4.60;;;2.28;;
17927;SDS011;9089;58.396;15.544;2022-08-04T05:50:59;3.58;;;2.00;;
17927;SDS011;9089;58.396;15.544;2022-08-04T05:53:27;5.15;;;2.20;;
17927;SDS011;9089;58.396;15.544;2022-08-04T05:55:53;4.05;;;1.75;;
17927;SDS011;9089;58.396;15.544;2022-08-04T05:58:19;4.05;;;1.98;;
17927;SDS011;9089;58.396;15.544;2022-08-04T06:00:44;4.32;;;1.83;;
17927;SDS011;9089;58.396;15.544;2022-08-04T06:03:11;4.63;;;1.92;;
17927;SDS011;9089;58.396;15.544;2022-08-04T06:05:37;6.35;;;2.15;;
17927;SDS011;9089;58.396;15.544;2022-08-04T06:08:03;5.68;;;1.83;;
17927;SDS011;9089;58.396;15.544;2022-08-04T06:10:30;6.88;;;2.45;;
17927;SDS011;9089;58.396;15.544;2022-08-04T06:12:57;4.70;;;1.90;;
17927;SDS011;9089;58.396;15.544;2022-08-04T06:15:24;6.50;;;1.90;;
17927;SDS011;9089;58.396;15.544;2022-08-04T06:17:52;5.93;;;1.92;;
17927;SDS011;9089;58.396;15.544;2022-08-04T06:20:19;2.05;;;1.50;;
17927;SDS011;9089;58.396;15.544;2022-08-04T06:22:46;3.13;;;1.55;;
17927;SDS011;9089;58.396;15.544;2022-08-04T06:25:14;2.95;;;1.60;;
17927;SDS011;9089;58.396;15.544;2022-08-04T06:27:42;7.00;;;1.60;;
17927;SDS011;9089;58.396;15.544;2022-08-04T06:30:08;3.67;;;1.90;;
17927;SDS011;9089;58.396;15.544;2022-08-04T06:32:39;2.40;;;1.63;;
17927;SDS011;9089;58.396;15.544;2022-08-04T06:35:13;2.67;;;1.42;;
17927;SDS011;9089;58.396;15.544;2022-08-04T06:37:39;4.00;;;1.60;;
17927;SDS011;9089;58.396;15.544;2022-08-04T06:40:06;2.55;;;1.60;;
17927;SDS011;9089;58.396;15.544;2022-08-04T06:42:31;3.75;;;1.60;;
17927;SDS011;9089;58.396;15.544;2022-08-04T06:44:59;4.55;;;1.90;;
17927;SDS011;9089;58.396;15.544;2022-08-04T06:47:25;3.70;;;1.48;;
17927;SDS011;9089;58.396;15.544;2022-08-04T06:49:52;3.30;;;1.80;;
17927;SDS011;9089;58.396;15.544;2022-08-04T06:52:18;4.15;;;1.40;;
17927;SDS011;9089;58.396;15.544;2022-08-04T06:54:44;3.08;;;1.77;;
17927;SDS011;9089;58.396;15.544;2022-08-04T06:57:10;2.88;;;1.48;;
17927;SDS011;9089;58.396;15.544;2022-08-04T06:59:37;2.15;;;1.25;;
17927;SDS011;9089;58.396;15.544;2022-08-04T07:02:06;3.17;;;1.88;;
17927;SDS011;9089;58.396;15.544;2022-08-04T07:04:33;1.88;;;1.10;;
17927;SDS011;9089;58.396;15.544;2022-08-04T07:06:59;3.10;;;1.35;;
17927;SDS011;9089;58.396;15.544;2022-08-04T07:09:24;2.97;;;1.27;;
17927;SDS011;9089;58.396;15.544;2022-08-04T07:11:50;3.90;;;1.20;;
17927;SDS011;9089;58.396;15.544;2022-08-04T07:14:15;2.88;;;1.40;;
17927;SDS011;9089;58.396;15.544;2022-08-04T07:16:42;3.92;;;1.15;;
17927;SDS011;9089;58.396;15.544;2022-08-04T07:19:09;2.45;;;1.33;;
17927;SDS011;9089;58.396;15.544;2022-08-04T07:21:34;5.22;;;1.33;;
17927;SDS011;9089;58.396;15.544;2022-08-04T07:24:00;2.38;;;1.27;;
17927;SDS011;9089;58.396;15.544;2022-08-04T07:26:26;3.08;;;1.30;;
17927;SDS011;9089;58.396;15.544;2022-08-04T07:28:52;1.95;;;1.23;;
17927;SDS011;9089;58.396;15.544;2022-08-04T07:31:17;2.28;;;0.95;;
17927;SDS011;9089;58.396;15.544;2022-08-04T07:33:43;3.35;;;1.05;;
17927;SDS011;9089;58.396;15.544;2022-08-04T07:36:11;3.45;;;0.95;;
17927;SDS011;9089;58.396;15.544;2022-08-04T07:38:37;3.40;;;1.38;;
17927;SDS011;9089;58.396;15.544;2022-08-04T07:41:02;1.25;;;0.90;;
17927;SDS011;9089;58.396;15.544;2022-08-04T07:43:29;3.17;;;1.40;;
17927;SDS011;9089;58.396;15.544;2022-08-04T07:45:55;3.33;;;1.35;;
17927;SDS011;9089;58.396;15.544;2022-08-04T07:48:20;2.42;;;1.30;;
17927;SDS011;9089;58.396;15.544;2022-08-04T07:50:48;2.13;;;0.95;;
17927;SDS011;9089;58.396;15.544;2022-08-04T07:53:15;1.45;;;1.17;;
17927;SDS011;9089;58.396;15.544;2022-08-04T07:55:42;1.92;;;1.10;;
17927;SDS011;9089;58.396;15.544;2022-08-04T07:58:08;4.68;;;1.55;;
17927;SDS011;9089;58.396;15.544;2022-08-04T08:00:33;2.67;;;1.08;;
17927;SDS011;9089;58.396;15.544;2022-08-04T08:02:59;1.00;;;0.85;;
17927;SDS011;9089;58.396;15.544;2022-08-04T08:05:25;2.35;;;0.80;;
17927;SDS011;9089;58.396;15.544;2022-08-04T08:07:51;3.92;;;1.10;;
17927;SDS011;9089;58.396;15.544;2022-08-04T08:10:18;4.22;;;1.00;;
17927;SDS011;9089;58.396;15.544;2022-08-04T08:12:44;1.77;;;0.82;;
17927;SDS011;9089;58.396;15.544;2022-08-04T08:15:10;1.48;;;1.10;;
17927;SDS011;9089;58.396;15.544;2022-08-04T08:17:39;3.38;;;1.20;;
17927;SDS011;9089;58.396;15.544;2022-08-04T08:20:05;1.27;;;0.88;;
17927;SDS011;9089;58.396;15.544;2022-08-04T08:22:31;3.42;;;1.10;;
17927;SDS011;9089;58.396;15.544;2022-08-04T08:24:56;2.47;;;0.93;;
17927;SDS011;9089;58.396;15.544;2022-08-04T08:27:23;3.28;;;1.08;;
17927;SDS011;9089;58.396;15.544;2022-08-04T08:29:49;2.25;;;1.23;;
17927;SDS011;9089;58.396;15.544;2022-08-04T08:32:15;2.72;;;1.00;;
17927;SDS011;9089;58.396;15.544;2022-08-04T08:34:40;1.35;;;0.82;;
17927;SDS011;9089;58.396;15.544;2022-08-04T08:37:08;1.45;;;0.80;;
17927;SDS011;9089;58.396;15.544;2022-08-04T08:39:37;1.40;;;0.80;;
17927;SDS011;9089;58.396;15.544;2022-08-04T08:45:07;2.45;;;0.90;;
17927;SDS011;9089;58.396;15.544;2022-08-04T08:47:41;1.95;;;1.15;;
17927;SDS011;9089;58.396;15.544;2022-08-04T08:50:13;1.85;;;1.00;;
17927;SDS011;9089;58.396;15.544;2022-08-04T08:52:51;4.90;;;1.35;;
17927;SDS011;9089;58.396;15.544;2022-08-04T08:55:25;2.58;;;0.80;;
17927;SDS011;9089;58.396;15.544;2022-08-04T08:57:59;3.13;;;1.60;;
17927;SDS011;9089;58.396;15.544;2022-08-04T09:00:32;2.03;;;1.17;;
17927;SDS011;9089;58.396;15.544;2022-08-04T09:03:04;1.80;;;0.95;;
17927;SDS011;9089;58.396;15.544;2022-08-04T09:05:37;1.95;;;1.08;;
17927;SDS011;9089;58.396;15.544;2022-08-04T09:08:10;1.38;;;0.95;;
17927;SDS011;9089;58.396;15.544;2022-08-04T09:10:40;3.13;;;0.98;;
17927;SDS011;9089;58.396;15.544;2022-08-04T09:13:07;3.22;;;1.00;;
17927;SDS011;9089;58.396;15.544;2022-08-04T09:15:38;1.38;;;1.00;;
17927;SDS011;9089;58.396;15.544;2022-08-04T09:18:04;1.67;;;0.75;;
17927;SDS011;9089;58.396;15.544;2022-08-04T09:20:33;2.40;;;1.00;;
17927;SDS011;9089;58.396;15.544;2022-08-04T09:23:12;1.25;;;0.90;;
17927;SDS011;9089;58.396;15.544;2022-08-04T09:25:41;1.90;;;0.95;;
17927;SDS011;9089;58.396;15.544;2022-08-04T09:28:12;1.58;;;0.95;;
17927;SDS011;9089;58.396;15.544;2022-08-04T09:30:47;2.40;;;0.85;;
17927;SDS011;9089;58.396;15.544;2022-08-04T09:33:15;1.60;;;0.70;;
17927;SDS011;9089;58.396;15.544;2022-08-04T09:35:46;0.85;;;0.65;;
17927;SDS011;9089;58.396;15.544;2022-08-04T09:38:14;1.15;;;0.68;;
17927;SDS011;9089;58.396;15.544;2022-08-04T09:40:46;2.55;;;0.90;;
17927;SDS011;9089;58.396;15.544;2022-08-04T09:43:16;1.50;;;0.80;;
17927;SDS011;9089;58.396;15.544;2022-08-04T09:45:47;1.45;;;0.90;;
17927;SDS011;9089;58.396;15.544;2022-08-04T09:48:16;1.13;;;0.80;;
17927;SDS011;9089;58.396;15.544;2022-08-04T09:50:43;1.88;;;0.88;;
17927;SDS011;9089;58.396;15.544;2022-08-04T09:53:12;2.38;;;1.15;;
17927;SDS011;9089;58.396;15.544;2022-08-04T09:55:52;2.85;;;0.70;;
17927;SDS011;9089;58.396;15.544;2022-08-04T09:58:21;3.05;;;1.00;;
17927;SDS011;9089;58.396;15.544;2022-08-04T10:00:51;2.03;;;0.63;;
17927;SDS011;9089;58.396;15.544;2022-08-04T10:03:17;1.25;;;0.70;;
17927;SDS011;9089;58.396;15.544;2022-08-04T10:05:46;0.82;;;0.57;;
17927;SDS011;9089;58.396;15.544;2022-08-04T10:08:16;1.13;;;0.70;;
17927;SDS011;9089;58.396;15.544;2022-08-04T10:10:46;1.77;;;0.60;;
17927;SDS011;9089;58.396;15.544;2022-08-04T10:13:20;2.35;;;0.80;;
17927;SDS011;9089;58.396;15.544;2022-08-04T10:15:54;0.80;;;0.65;;
17927;SDS011;9089;58.396;15.544;2022-08-04T10:18:25;2.95;;;0.70;;
17927;SDS011;9089;58.396;15.544;2022-08-04T10:20:54;1.25;;;0.85;;
17927;SDS011;9089;58.396;15.544;2022-08-04T10:23:26;1.75;;;0.70;;
17927;SDS011;9089;58.396;15.544;2022-08-04T10:26:04;2.75;;;0.70;;
17927;SDS011;9089;58.396;15.544;2022-08-04T10:28:30;2.00;;;0.60;;
17927;SDS011;9089;58.396;15.544;2022-08-04T10:31:02;1.85;;;0.70;;
17927;SDS011;9089;58.396;15.544;2022-08-04T10:33:30;2.80;;;1.33;;
17927;SDS011;9089;58.396;15.544;2022-08-04T10:35:58;0.70;;;0.70;;
17927;SDS011;9089;58.396;15.544;2022-08-04T10:38:26;2.58;;;0.82;;
17927;SDS011;9089;58.396;15.544;2022-08-04T10:40:55;2.70;;;0.90;;
17927;SDS011;9089;58.396;15.544;2022-08-04T10:43:24;0.55;;;0.45;;
17927;SDS011;9089;58.396;15.544;2022-08-04T10:45:56;1.60;;;0.80;;
17927;SDS011;9089;58.396;15.544;2022-08-04T10:48:25;1.40;;;0.60;;
17927;SDS011;9089;58.396;15.544;2022-08-04T10:50:58;3.60;;;0.80;;
17927;SDS011;9089;58.396;15.544;2022-08-04T10:53:26;1.85;;;0.70;;
17927;SDS011;9089;58.396;15.544;2022-08-04T10:55:55;2.50;;;0.68;;
17927;SDS011;9089;58.396;15.544;2022-08-04T10:58:23;2.42;;;0.70;;
17927;SDS011;9089;58.396;15.544;2022-08-04T11:00:49;2.72;;;0.70;;
17927;SDS011;9089;58.396;15.544;2022-08-04T11:03:22;1.20;;;0.80;;
17927;SDS011;9089;58.396;15.544;2022-08-04T11:05:51;0.75;;;0.50;;
17927;SDS011;9089;58.396;15.544;2022-08-04T11:08:18;0.50;;;0.50;;
17927;SDS011;9089;58.396;15.544;2022-08-04T11:10:45;1.00;;;0.52;;
17927;SDS011;9089;58.396;15.544;2022-08-04T11:13:12;1.13;;;0.60;;
17927;SDS011;9089;58.396;15.544;2022-08-04T11:15:40;0.93;;;0.70;;
17927;SDS011;9089;58.396;15.544;2022-08-04T11:18:09;1.17;;;0.50;;
17927;SDS011;9089;58.396;15.544;2022-08-04T11:20:39;2.20;;;0.65;;
17927;SDS011;9089;58.396;15.544;2022-08-04T11:23:08;0.98;;;0.60;;
17927;SDS011;9089;58.396;15.544;2022-08-04T11:25:38;1.00;;;0.63;;
17927;SDS011;9089;58.396;15.544;2022-08-04T11:28:08;1.23;;;0.70;;
17927;SDS011;9089;58.396;15.544;2022-08-04T11:30:37;0.50;;;0.50;;
17927;SDS011;9089;58.396;15.544;2022-08-04T11:33:13;1.13;;;0.60;;
17927;SDS011;9089;58.396;15.544;2022-08-04T11:35:46;1.35;;;0.80;;
17927;SDS011;9089;58.396;15.544;2022-08-04T11:38:19;1.52;;;0.55;;
17927;SDS011;9089;58.396;15.544;2022-08-04T11:40:46;1.48;;;0.88;;
17927;SDS011;9089;58.396;15.544;2022-08-04T11:43:15;0.98;;;0.40;;
17927;SDS011;9089;58.396;15.544;2022-08-04T11:45:44;1.00;;;0.70;;
17927;SDS011;9089;58.396;15.544;2022-08-04T11:48:12;2.30;;;0.93;;
17927;SDS011;9089;58.396;15.544;2022-08-04T11:50:42;1.65;;;0.63;;
17927;SDS011;9089;58.396;15.544;2022-08-04T11:53:09;0.77;;;0.70;;
17927;SDS011;9089;58.396;15.544;2022-08-04T11:55:41;1.73;;;0.65;;
17927;SDS011;9089;58.396;15.544;2022-08-04T11:58:06;1.63;;;0.70;;
17927;SDS011;9089;58.396;15.544;2022-08-04T12:00:33;1.48;;;0.70;;
17927;SDS011;9089;58.396;15.544;2022-08-04T12:03:14;0.80;;;0.73;;
17927;SDS011;9089;58.396;15.544;2022-08-04T12:05:45;0.68;;;0.60;;
17927;SDS011;9089;58.396;15.544;2022-08-04T12:08:16;1.10;;;0.70;;
17927;SDS011;9089;58.396;15.544;2022-08-04T12:10:49;1.70;;;0.80;;
17927;SDS011;9089;58.396;15.544;2022-08-04T12:13:19;5.63;;;0.77;;
17927;SDS011;9089;58.396;15.544;2022-08-04T12:15:51;1.30;;;0.90;;
17927;SDS011;9089;58.396;15.544;2022-08-04T12:18:21;1.15;;;0.68;;
17927;SDS011;9089;58.396;15.544;2022-08-04T12:20:49;2.20;;;0.88;;
17927;SDS011;9089;58.396;15.544;2022-08-04T12:23:19;1.50;;;0.70;;
17927;SDS011;9089;58.396;15.544;2022-08-04T12:25:49;0.85;;;0.70;;
17927;SDS011;9089;58.396;15.544;2022-08-04T12:28:18;2.67;;;0.73;;
17927;SDS011;9089;58.396;15.544;2022-08-04T12:30:48;1.65;;;0.50;;
17927;SDS011;9089;58.396;15.544;2022-08-04T12:33:18;1.73;;;0.73;;
17927;SDS011;9089;58.396;15.544;2022-08-04T12:35:46;1.83;;;0.80;;
17927;SDS011;9089;58.396;15.544;2022-08-04T12:38:13;1.33;;;0.50;;
17927;SDS011;9089;58.396;15.544;2022-08-04T12:40:40;1.63;;;0.85;;
17927;SDS011;9089;58.396;15.544;2022-08-04T12:43:09;2.40;;;0.85;;
17927;SDS011;9089;58.396;15.544;2022-08-04T12:45:35;3.20;;;1.10;;
17927;SDS011;9089;58.396;15.544;2022-08-04T12:48:06;5.22;;;1.02;;
17927;SDS011;9089;58.396;15.544;2022-08-04T12:50:33;2.92;;;1.00;;
17927;SDS011;9089;58.396;15.544;2022-08-04T12:53:00;3.40;;;1.00;;
17927;SDS011;9089;58.396;15.544;2022-08-04T12:55:34;1.98;;;1.15;;
17927;SDS011;9089;58.396;15.544;2022-08-04T12:58:01;2.60;;;0.93;;
17927;SDS011;9089;58.396;15.544;2022-08-04T13:00:31;2.53;;;1.13;;
17927;SDS011;9089;58.396;15.544;2022-08-04T13:02:58;1.80;;;1.15;;
17927;SDS011;9089;58.396;15.544;2022-08-04T13:05:24;2.85;;;1.30;;
17927;SDS011;9089;58.396;15.544;2022-08-04T13:07:51;5.63;;;1.50;;
17927;SDS011;9089;58.396;15.544;2022-08-04T13:10:17;4.18;;;1.77;;
17927;SDS011;9089;58.396;15.544;2022-08-04T13:12:50;4.30;;;1.55;;
17927;SDS011;9089;58.396;15.544;2022-08-04T13:15:23;3.42;;;1.30;;
17927;SDS011;9089;58.396;15.544;2022-08-04T13:17:52;3.97;;;0.98;;
17927;SDS011;9089;58.396;15.544;2022-08-04T13:20:20;3.38;;;1.30;;
17927;SDS011;9089;58.396;15.544;2022-08-04T13:22:48;4.32;;;1.25;;
17927;SDS011;9089;58.396;15.544;2022-08-04T13:25:13;4.60;;;1.52;;
17927;SDS011;9089;58.396;15.544;2022-08-04T13:27:39;3.58;;;1.45;;
17927;SDS011;9089;58.396;15.544;2022-08-04T13:30:11;4.57;;;1.52;;
17927;SDS011;9089;58.396;15.544;2022-08-04T13:32:37;7.80;;;2.03;;
17927;SDS011;9089;58.396;15.544;2022-08-04T13:35:05;4.18;;;1.52;;
17927;SDS011;9089;58.396;15.544;2022-08-04T13:37:33;5.97;;;1.40;;
17927;SDS011;9089;58.396;15.544;2022-08-04T13:40:00;5.38;;;2.08;;
17927;SDS011;9089;58.396;15.544;2022-08-04T13:42:27;5.93;;;1.95;;
17927;SDS011;9089;58.396;15.544;2022-08-04T13:44:53;3.45;;;1.98;;
17927;SDS011;9089;58.396;15.544;2022-08-04T13:47:21;2.80;;;1.40;;
17927;SDS011;9089;58.396;15.544;2022-08-04T13:52:51;4.82;;;1.90;;
17927;SDS011;9089;58.396;15.544;2022-08-04T13:55:21;3.40;;;1.60;;
17927;SDS011;9089;58.396;15.544;2022-08-04T13:57:48;2.83;;;1.88;;
17927;SDS011;9089;58.396;15.544;2022-08-04T14:00:14;5.72;;;1.90;;
17927;SDS011;9089;58.396;15.544;2022-08-04T14:02:42;7.25;;;1.50;;
17927;SDS011;9089;58.396;15.544;2022-08-04T14:05:08;4.97;;;1.70;;
17927;SDS011;9089;58.396;15.544;2022-08-04T14:07:40;6.43;;;1.85;;
17927;SDS011;9089;58.396;15.544;2022-08-04T14:10:10;3.53;;;1.50;;
17927;SDS011;9089;58.396;15.544;2022-08-04T14:12:35;5.05;;;1.80;;
17927;SDS011;9089;58.396;15.544;2022-08-04T14:15:07;4.53;;;1.67;;
17927;SDS011;9089;58.396;15.544;2022-08-04T14:17:53;7.00;;;2.22;;
17927;SDS011;9089;58.396;15.544;2022-08-04T14:20:18;5.88;;;1.40;;
17927;SDS011;9089;58.396;15.544;2022-08-04T14:22:44;4.93;;;2.03;;
17927;SDS011;9089;58.396;15.544;2022-08-04T14:25:11;3.83;;;1.83;;
17927;SDS011;9089;58.396;15.544;2022-08-04T14:27:41;3.70;;;1.73;;
17927;SDS011;9089;58.396;15.544;2022-08-04T14:30:11;4.05;;;1.60;;
17927;SDS011;9089;58.396;15.544;2022-08-04T14:32:52;2.90;;;1.50;;
17927;SDS011;9089;58.396;15.544;2022-08-04T14:35:18;3.50;;;1.73;;
17927;SDS011;9089;58.396;15.544;2022-08-04T14:37:51;4.68;;;1.90;;
17927;SDS011;9089;58.396;15.544;2022-08-04T14:40:22;3.70;;;1.80;;
17927;SDS011;9089;58.396;15.544;2022-08-04T14:42:48;5.65;;;1.70;;
17927;SDS011;9089;58.396;15.544;2022-08-04T14:45:13;4.05;;;2.00;;
17927;SDS011;9089;58.396;15.544;2022-08-04T14:47:39;5.95;;;1.88;;
17927;SDS011;9089;58.396;15.544;2022-08-04T14:50:05;5.68;;;2.35;;
17927;SDS011;9089;58.396;15.544;2022-08-04T14:52:31;7.45;;;1.60;;
17927;SDS011;9089;58.396;15.544;2022-08-04T14:54:57;9.10;;;1.80;;
17927;SDS011;9089;58.396;15.544;2022-08-04T14:57:24;4.47;;;1.67;;
17927;SDS011;9089;58.396;15.544;2022-08-04T14:59:49;5.43;;;1.67;;
17927;SDS011;9089;58.396;15.544;2022-08-04T15:02:15;4.53;;;1.90;;
17927;SDS011;9089;58.396;15.544;2022-08-04T15:04:40;6.68;;;2.03;;
17927;SDS011;9089;58.396;15.544;2022-08-04T15:07:06;3.83;;;1.73;;
17927;SDS011;9089;58.396;15.544;2022-08-04T15:09:32;4.72;;;1.73;;
17927;SDS011;9089;58.396;15.544;2022-08-04T15:11:58;4.57;;;2.42;;
17927;SDS011;9089;58.396;15.544;2022-08-04T15:14:24;3.65;;;2.00;;
17927;SDS011;9089;58.396;15.544;2022-08-04T15:16:50;5.55;;;1.63;;
17927;SDS011;9089;58.396;15.544;2022-08-04T15:19:16;5.45;;;1.73;;
17927;SDS011;9089;58.396;15.544;2022-08-04T15:21:41;4.55;;;1.70;;
17927;SDS011;9089;58.396;15.544;2022-08-04T15:24:07;5.57;;;1.70;;
17927;SDS011;9089;58.396;15.544;2022-08-04T15:26:34;4.10;;;1.80;;
17927;SDS011;9089;58.396;15.544;2022-08-04T15:29:03;3.92;;;1.42;;
17927;SDS011;9089;58.396;15.544;2022-08-04T15:31:31;3.25;;;1.75;;
17927;SDS011;9089;58.396;15.544;2022-08-04T15:34:01;5.30;;;2.13;;
17927;SDS011;9089;58.396;15.544;2022-08-04T15:36:30;4.82;;;1.80;;
17927;SDS011;9089;58.396;15.544;2022-08-04T15:39:00;3.97;;;1.63;;
17927;SDS011;9089;58.396;15.544;2022-08-04T15:41:29;3.17;;;1.23;;
17927;SDS011;9089;58.396;15.544;2022-08-04T15:43:58;4.47;;;1.45;;
17927;SDS011;9089;58.396;15.544;2022-08-04T15:46:49;3.85;;;1.30;;